createdAt,value
2022-08-09T00:00:24.614Z,5.15
2022-08-09T00:02:54.789Z,5.70
2022-08-09T00:06:15.468Z,5.50
2022-08-09T00:08:13.146Z,5.70
2022-08-09T00:11:06.064Z,5.35
2022-08-09T00:13:50.381Z,5.32
2022-08-09T00:16:25.848Z,5.30
2022-08-09T00:21:37.928Z,5.03
2022-08-09T00:24:12.555Z,5.32
2022-08-09T00:26:44.894Z,5.30
2022-08-09T00:29:39.947Z,5.53
2022-08-09T00:32:05.576Z,5.45
2022-08-09T00:34:34.307Z,5.20
2022-08-09T00:37:02.498Z,5.25
2022-08-09T00:40:12.571Z,5.45
2022-08-09T00:44:13.947Z,5.50
2022-08-09T00:45:16.415Z,5.22
2022-08-09T00:47:45.467Z,5.55
2022-08-09T00:50:15.041Z,5.57
2022-08-09T00:52:43.977Z,5.28
2022-08-09T00:55:32.782Z,5.40
2022-08-09T00:58:03.094Z,5.30
2022-08-09T01:00:36.466Z,5.22
2022-08-09T01:03:09.447Z,5.63
2022-08-09T01:05:50.813Z,5.70
2022-08-09T01:08:28.276Z,5.50
2022-08-09T01:11:04.592Z,5.53
2022-08-09T01:13:58.701Z,5.22
2022-08-09T01:16:29.205Z,5.55
2022-08-09T01:19:01.619Z,5.55
2022-08-09T01:21:52.346Z,5.05
2022-08-09T01:24:29.912Z,5.57
2022-08-09T01:27:02.284Z,5.22
2022-08-09T01:29:41.164Z,5.38
2022-08-09T01:32:30.802Z,5.53
2022-08-09T01:35:18.255Z,4.88
2022-08-09T01:38:09.953Z,5.20
2022-08-09T01:40:42.028Z,5.07
2022-08-09T01:43:12.354Z,5.65
2022-08-09T01:45:46.109Z,4.97
2022-08-09T01:48:17.088Z,5.50
2022-08-09T01:50:48.192Z,5.22
2022-08-09T01:53:19.239Z,4.90
2022-08-09T01:55:49.179Z,5.25
2022-08-09T01:58:19.058Z,5.15
2022-08-09T02:00:53.574Z,5.40
2022-08-09T02:03:22.103Z,5.65
2022-08-09T02:06:04.150Z,5.38
2022-08-09T02:08:57.640Z,5.10
2022-08-09T02:11:42.751Z,5.50
2022-08-09T02:14:26.493Z,4.88
2022-08-09T02:17:15.225Z,5.38
2022-08-09T02:19:45.048Z,5.28
2022-08-09T02:22:27.380Z,5.10
2022-08-09T02:25:06.655Z,5.15
2022-08-09T02:27:57.720Z,4.85
2022-08-09T02:30:38.594Z,4.80
2022-08-09T02:33:14.493Z,5.97
2022-08-09T02:36:03.879Z,4.95
2022-08-09T02:38:34.941Z,4.70
2022-08-09T02:41:07.617Z,5.10
2022-08-09T02:43:47.724Z,5.07
2022-08-09T02:46:27.313Z,4.90
2022-08-09T02:48:57.946Z,5.00
2022-08-09T02:51:27.811Z,4.70
2022-08-09T02:54:01.630Z,5.05
2022-08-09T02:56:34.443Z,4.93
2022-08-09T02:59:06.150Z,5.20
2022-08-09T03:01:42.675Z,5.10
2022-08-09T03:04:19.165Z,4.95
2022-08-09T03:06:49.219Z,5.35
2022-08-09T03:09:20.377Z,5.40
2022-08-09T03:12:05.766Z,5.10
2022-08-09T03:14:37.534Z,5.53
2022-08-09T03:17:16.671Z,5.15
2022-08-09T03:20:00.190Z,5.35
2022-08-09T03:22:41.765Z,5.10
2022-08-09T03:25:26.226Z,4.78
2022-08-09T03:28:02.478Z,5.32
2022-08-09T03:30:34.244Z,5.60
2022-08-09T03:33:17.274Z,5.38
2022-08-09T03:36:12.878Z,5.05
2022-08-09T03:38:37.314Z,4.45
2022-08-09T03:41:15.592Z,3.63
2022-08-09T03:44:03.384Z,3.10
2022-08-09T03:46:34.249Z,2.85
2022-08-09T03:49:08.870Z,3.40
2022-08-09T03:51:55.814Z,2.90
2022-08-09T03:54:31.127Z,3.05
2022-08-09T03:57:02.099Z,3.53
2022-08-09T03:59:53.178Z,2.75
2022-08-09T04:02:30.014Z,2.85
2022-08-09T04:05:01.331Z,3.03
2022-08-09T04:07:52.886Z,2.95
2022-08-09T04:10:28.891Z,3.42
2022-08-09T04:13:01.371Z,3.28
2022-08-09T04:16:18.667Z,2.72
2022-08-09T04:18:21.501Z,3.00
2022-08-09T04:20:51.863Z,3.15
2022-08-09T04:23:23.358Z,3.30
2022-08-09T04:25:53.398Z,2.92
2022-08-09T04:28:30.673Z,3.63
2022-08-09T04:31:05.758Z,3.20
2022-08-09T04:33:52.552Z,2.90
2022-08-09T04:36:25.574Z,3.00
2022-08-09T04:38:54.281Z,3.35
2022-08-09T04:41:23.722Z,3.25
2022-08-09T04:44:05.158Z,2.83
2022-08-09T04:46:59.485Z,2.97
2022-08-09T04:49:52.396Z,3.20
2022-08-09T04:52:26.181Z,3.10
2022-08-09T04:54:55.610Z,3.10
2022-08-09T04:57:25.076Z,2.90
2022-08-09T04:59:54.139Z,3.17
2022-08-09T05:02:22.901Z,3.10
2022-08-09T05:04:55.575Z,3.10
2022-08-09T05:07:32.391Z,3.20
2022-08-09T05:10:06.017Z,3.50
2022-08-09T05:12:35.309Z,3.03
2022-08-09T05:15:11.772Z,2.88
2022-08-09T05:18:38.800Z,2.85
2022-08-09T05:21:23.317Z,2.70
2022-08-09T05:24:21.457Z,2.78
2022-08-09T05:27:17.213Z,2.92
2022-08-09T05:30:48.571Z,3.10
2022-08-09T05:42:01.623Z,2.72
2022-08-09T06:04:49.906Z,3.22
2022-08-09T06:08:05.418Z,2.80
2022-08-09T06:18:44.991Z,2.63
2022-08-09T06:37:21.912Z,2.50
2022-08-09T06:48:51.283Z,2.92
2022-08-09T06:54:35.628Z,2.70
2022-08-09T06:57:16.519Z,2.33
2022-08-09T07:00:52.680Z,2.35
2022-08-09T07:03:01.884Z,2.47
2022-08-09T07:05:58.523Z,2.40
2022-08-09T07:20:31.930Z,2.50
2022-08-09T07:23:04.198Z,2.60
2022-08-09T07:25:52.238Z,2.63
2022-08-09T07:28:29.286Z,2.80
2022-08-09T07:31:09.971Z,2.70
2022-08-09T07:33:52.093Z,2.50
2022-08-09T07:36:26.664Z,2.47
2022-08-09T07:39:11.685Z,2.90
2022-08-09T07:41:45.531Z,2.50
2022-08-09T07:44:18.023Z,2.65
2022-08-09T07:47:00.918Z,2.58
2022-08-09T07:50:05.314Z,2.45
2022-08-09T07:52:35.635Z,2.83
2022-08-09T07:55:14.877Z,2.45
2022-08-09T07:57:49.465Z,2.75
2022-08-09T08:00:36.318Z,2.67
2022-08-09T08:03:09.871Z,2.58
2022-08-09T08:05:57.684Z,2.90
2022-08-09T08:09:01.223Z,2.70
2022-08-09T08:12:10.260Z,2.65
2022-08-09T08:14:40.523Z,2.60
2022-08-09T08:17:52.924Z,2.70
2022-08-09T08:34:16.995Z,2.73
2022-08-09T08:37:41.514Z,2.80
2022-08-09T08:48:05.327Z,2.88
2022-08-09T08:51:12.582Z,2.90
2022-08-09T08:57:57.141Z,3.28
2022-08-09T09:11:59.427Z,2.92
2022-08-09T09:40:43.867Z,2.65
2022-08-09T09:54:48.824Z,2.85
2022-08-09T10:05:06.659Z,2.75
2022-08-09T10:16:54.892Z,3.20
2022-08-09T10:23:11.665Z,2.92
2022-08-09T10:30:49.282Z,3.03
2022-08-09T10:34:32.521Z,3.17
2022-08-09T10:41:24.785Z,2.70
2022-08-09T10:54:28.341Z,2.60
2022-08-09T10:57:12.287Z,2.45
2022-08-09T11:00:01.891Z,3.15
2022-08-09T11:03:11.444Z,2.78
2022-08-09T11:05:35.345Z,2.88
2022-08-09T11:08:33.195Z,2.97
2022-08-09T11:11:08.720Z,3.08
2022-08-09T11:13:54.124Z,2.80
2022-08-09T11:16:35.731Z,3.10
2022-08-09T11:24:04.061Z,2.55
2022-08-09T11:26:40.805Z,2.83
2022-08-09T11:30:05.266Z,2.78
2022-08-09T11:32:52.526Z,2.70
2022-08-09T11:37:57.696Z,2.47
2022-08-09T11:40:31.839Z,2.80
2022-08-09T11:43:02.351Z,3.00
2022-08-09T11:45:42.803Z,2.72
2022-08-09T11:48:26.104Z,3.08
2022-08-09T11:52:48.877Z,2.72
2022-08-09T11:54:12.817Z,2.60
2022-08-09T11:56:48.309Z,2.78
2022-08-09T11:59:30.564Z,3.08
2022-08-09T12:02:17.400Z,2.70
2022-08-09T12:04:48.247Z,2.65
2022-08-09T12:07:28.653Z,2.80
2022-08-09T12:10:31.911Z,2.80
2022-08-09T12:13:03.440Z,2.70
2022-08-09T12:15:50.491Z,2.35
2022-08-09T12:18:26.048Z,2.63
2022-08-09T12:21:00.527Z,2.90
2022-08-09T12:23:58.004Z,2.70
2022-08-09T12:26:25.633Z,2.88
2022-08-09T12:29:29.997Z,2.92
2022-08-09T12:32:01.525Z,2.97
2022-08-09T12:34:35.034Z,2.60
2022-08-09T12:37:21.346Z,3.05
2022-08-09T12:40:02.897Z,2.70
2022-08-09T12:42:33.281Z,2.92
2022-08-09T12:45:03.789Z,2.55
2022-08-09T12:47:53.938Z,2.38
2022-08-09T12:50:23.414Z,2.88
2022-08-09T12:53:09.480Z,3.00
2022-08-09T12:56:15.520Z,2.70
2022-08-09T12:58:34.010Z,2.90
2022-08-09T13:01:05.159Z,2.75
2022-08-09T13:03:57.394Z,2.63
2022-08-09T13:06:34.664Z,2.88
2022-08-09T13:09:06.302Z,3.20
2022-08-09T13:11:39.432Z,2.90
2022-08-09T13:17:03.838Z,2.83
2022-08-09T13:20:09.095Z,2.97
2022-08-09T13:22:36.206Z,2.90
2022-08-09T13:25:13.703Z,3.05
2022-08-09T13:27:54.515Z,2.95
2022-08-09T13:30:50.439Z,2.80
2022-08-09T13:33:23.757Z,3.20
2022-08-09T13:36:39.552Z,2.95
2022-08-09T13:38:56.556Z,2.78
2022-08-09T13:41:57.338Z,3.08
2022-08-09T13:44:19.316Z,2.80
2022-08-09T13:47:27.737Z,3.08
2022-08-09T13:49:55.813Z,3.05
2022-08-09T13:52:25.057Z,2.90
2022-08-09T13:55:00.282Z,3.33
2022-08-09T13:57:35.671Z,2.80
2022-08-09T14:00:07.585Z,2.90
2022-08-09T14:02:42.697Z,2.65
2022-08-09T14:06:06.228Z,3.40
2022-08-09T14:09:02.219Z,3.17
2022-08-09T14:11:31.667Z,3.08
2022-08-09T14:14:15.612Z,3.00
2022-08-09T14:16:56.779Z,2.75
2022-08-09T14:19:27.215Z,2.83
2022-08-09T14:22:03.346Z,2.75
2022-08-09T14:24:33.622Z,2.80
2022-08-09T14:27:02.312Z,2.80
2022-08-09T14:30:18.570Z,3.10
2022-08-09T14:32:28.757Z,2.75
2022-08-09T14:35:02.377Z,2.60
2022-08-09T14:38:01.330Z,2.70
2022-08-09T14:40:38.796Z,2.97
2022-08-09T14:43:18.422Z,2.95
2022-08-09T14:47:01.071Z,2.45
2022-08-09T14:48:36.064Z,2.60
2022-08-09T14:51:05.350Z,2.70
2022-08-09T14:53:38.741Z,2.33
2022-08-09T14:56:08.860Z,2.70
2022-08-09T14:58:56.322Z,2.70
2022-08-09T15:01:31.609Z,2.78
2022-08-09T15:04:15.938Z,2.47
2022-08-09T15:06:49.704Z,2.60
2022-08-09T15:10:07.174Z,2.65
2022-08-09T15:12:53.233Z,2.50
2022-08-09T15:15:21.984Z,2.17
2022-08-09T15:17:53.501Z,2.55
2022-08-09T15:21:56.529Z,2.17
2022-08-09T15:24:01.872Z,2.20
2022-08-09T15:26:01.619Z,2.53
2022-08-09T15:28:33.605Z,2.00
2022-08-09T15:31:10.209Z,2.40
2022-08-09T15:34:15.394Z,2.13
2022-08-09T15:36:30.513Z,2.15
2022-08-09T15:39:00.458Z,2.20
2022-08-09T15:41:32.429Z,2.20
2022-08-09T15:44:16.033Z,1.80
2022-08-09T15:47:32.810Z,2.00
2022-08-09T15:50:20.265Z,1.90
2022-08-09T15:53:06.062Z,2.00
2022-08-09T15:56:28.365Z,1.80
2022-08-09T15:58:50.254Z,2.20
2022-08-09T16:01:20.708Z,1.90
2022-08-09T16:03:51.185Z,1.67
2022-08-09T16:06:32.727Z,1.80
2022-08-09T16:09:04.956Z,1.83
2022-08-09T16:11:36.365Z,1.90
2022-08-09T16:14:08.266Z,1.60
2022-08-09T16:16:41.962Z,1.90
2022-08-09T16:19:17.113Z,1.73
2022-08-09T16:21:51.975Z,1.50
2022-08-09T16:24:32.879Z,1.60
2022-08-09T16:27:05.140Z,1.50
2022-08-09T16:29:37.499Z,1.50
2022-08-09T16:32:33.443Z,1.50
2022-08-09T16:35:53.078Z,1.48
2022-08-09T16:38:10.388Z,1.30
2022-08-09T16:40:41.177Z,1.38
2022-08-09T16:43:09.672Z,1.55
2022-08-09T16:45:43.907Z,1.48
2022-08-09T16:48:43.283Z,1.75
2022-08-09T16:51:07.408Z,1.38
2022-08-09T16:53:56.332Z,1.20
2022-08-09T16:56:26.646Z,1.50
2022-08-09T16:59:06.885Z,1.20
2022-08-09T17:01:39.585Z,1.23
2022-08-09T17:04:24.414Z,1.40
2022-08-09T17:08:40.190Z,1.50
2022-08-09T17:09:50.307Z,1.40
2022-08-09T17:12:23.200Z,1.20
2022-08-09T17:14:58.065Z,1.20
2022-08-09T17:17:51.223Z,1.60
2022-08-09T17:20:52.324Z,1.40
2022-08-09T17:24:20.457Z,1.52
2022-08-09T17:27:15.533Z,1.50
2022-08-09T17:29:45.774Z,1.17
2022-08-09T17:32:20.397Z,1.45
2022-08-09T17:35:07.596Z,1.33
2022-08-09T17:38:02.738Z,1.60
2022-08-09T17:40:31.944Z,1.40
2022-08-09T17:43:32.148Z,1.30
2022-08-09T17:46:02.968Z,1.30
2022-08-09T17:48:51.848Z,1.15
2022-08-09T17:52:22.474Z,1.27
2022-08-09T17:59:54.898Z,1.50
2022-08-09T18:03:24.238Z,1.70
2022-08-09T18:06:22.480Z,1.60
2022-08-09T18:09:40.024Z,1.45
2022-08-09T18:12:21.682Z,1.60
2022-08-09T18:15:27.689Z,1.75
2022-08-09T18:18:25.725Z,1.45
2022-08-09T18:21:41.538Z,1.50
2022-08-09T18:24:14.173Z,1.75
2022-08-09T18:26:50.567Z,1.58
2022-08-09T18:30:40.358Z,1.55
2022-08-09T18:32:10.845Z,1.90
2022-08-09T18:34:40.514Z,1.60
2022-08-09T18:40:53.689Z,1.52
2022-08-09T18:43:35.606Z,1.48
2022-08-09T18:46:46.470Z,1.50
2022-08-09T18:49:09.569Z,1.48
2022-08-09T18:51:54.626Z,1.73
2022-08-09T18:54:28.518Z,1.58
2022-08-09T18:57:05.461Z,1.40
2022-08-09T18:59:51.404Z,1.50
2022-08-09T19:02:31.714Z,1.30
2022-08-09T19:05:14.489Z,1.38
2022-08-09T19:08:04.769Z,1.70
2022-08-09T19:10:49.279Z,1.50
2022-08-09T19:13:38.263Z,1.60
2022-08-09T19:16:24.914Z,1.60
2022-08-09T19:19:25.065Z,1.52
2022-08-09T19:22:15.173Z,1.40
2022-08-09T19:25:11.757Z,1.60
2022-08-09T19:27:48.638Z,1.60
2022-08-09T19:30:28.045Z,1.50
2022-08-09T19:32:59.798Z,1.67
2022-08-09T19:35:58.074Z,1.50
2022-08-09T19:38:18.060Z,1.83
2022-08-09T19:40:46.425Z,1.60
2022-08-09T19:44:01.815Z,1.73
2022-08-09T19:46:35.232Z,1.80
2022-08-09T19:50:07.060Z,1.80
2022-08-09T19:51:57.017Z,1.60
2022-08-09T19:54:25.533Z,1.60
2022-08-09T19:56:54.161Z,1.80
2022-08-09T19:59:57.805Z,1.60
2022-08-09T20:02:17.383Z,1.63
2022-08-09T20:05:09.873Z,1.83
2022-08-09T20:07:59.693Z,1.80
2022-08-09T20:10:34.573Z,1.90
2022-08-09T20:13:05.304Z,1.73
2022-08-09T20:16:36.156Z,1.90
2022-08-09T20:19:04.028Z,1.85
2022-08-09T20:21:54.994Z,2.10
2022-08-09T20:24:33.725Z,1.70
2022-08-09T20:27:11.603Z,1.70
2022-08-09T20:29:57.648Z,1.90
2022-08-09T20:32:38.122Z,1.70
2022-08-09T20:38:24.025Z,1.60
2022-08-09T20:41:04.039Z,1.65
2022-08-09T20:50:47.379Z,1.70
2022-08-09T21:01:50.960Z,1.60
2022-08-09T21:05:51.898Z,1.70
2022-08-09T21:07:16.779Z,1.70
2022-08-09T21:10:30.586Z,2.05
2022-08-09T21:16:45.725Z,1.55
2022-08-09T21:20:17.857Z,1.73
2022-08-09T21:22:35.674Z,1.90
2022-08-09T21:25:38.026Z,1.80
2022-08-09T21:34:28.834Z,1.73
2022-08-09T21:37:18.302Z,1.92
2022-08-09T21:44:03.202Z,1.92
2022-08-09T21:46:35.939Z,1.90
2022-08-09T21:49:05.404Z,1.98
2022-08-09T21:51:43.871Z,2.58
2022-08-09T21:54:12.253Z,1.90
2022-08-09T21:56:44.613Z,1.70
2022-08-09T21:59:25.586Z,1.60
2022-08-09T22:02:00.297Z,2.10
2022-08-09T22:04:55.606Z,2.03
2022-08-09T22:07:35.516Z,1.90
2022-08-09T22:10:11.154Z,2.00
2022-08-09T22:12:41.467Z,1.92
2022-08-09T22:15:18.785Z,1.70
2022-08-09T22:17:49.529Z,1.98
2022-08-09T22:20:21.797Z,2.00
2022-08-09T22:22:58.824Z,2.15
2022-08-09T22:26:06.651Z,2.10
2022-08-09T22:28:29.707Z,1.95
2022-08-09T22:31:02.050Z,1.90
2022-08-09T22:33:37.592Z,2.10
2022-08-09T22:36:19.245Z,1.73
2022-08-09T22:38:49.615Z,2.00
2022-08-09T22:41:22.654Z,2.10
2022-08-09T22:44:01.250Z,1.80
2022-08-09T22:48:14.399Z,2.15
2022-08-09T22:49:21.958Z,2.08
2022-08-09T22:51:56.715Z,2.10
2022-08-09T22:54:29.858Z,2.00
2022-08-09T22:56:58.852Z,2.10
2022-08-09T22:59:55.451Z,2.30
2022-08-09T23:02:19.980Z,1.92
2022-08-09T23:04:53.408Z,2.00
2022-08-09T23:08:21.983Z,2.00
2022-08-09T23:10:31.072Z,1.90
2022-08-09T23:12:59.944Z,1.88
2022-08-09T23:15:28.615Z,2.10
2022-08-09T23:17:57.235Z,2.13
2022-08-09T23:20:26.364Z,2.13
2022-08-09T23:22:55.123Z,2.03
2022-08-09T23:25:23.735Z,2.03
2022-08-09T23:28:11.652Z,2.20
2022-08-09T23:30:50.875Z,2.00
2022-08-09T23:33:20.441Z,2.63
2022-08-09T23:36:04.862Z,2.30
2022-08-09T23:38:35.385Z,2.20
2022-08-09T23:41:04.553Z,2.10
2022-08-09T23:43:34.054Z,2.00
2022-08-09T23:46:02.374Z,2.10
2022-08-09T23:48:30.778Z,1.92
2022-08-09T23:50:58.887Z,1.83
2022-08-09T23:53:27.682Z,1.92
2022-08-09T23:55:59.260Z,1.90
2022-08-09T23:58:29.923Z,2.00
